Time;durP1;ratioP1;P1;durP2;ratioP2;P2;SDS_P1;SDS_P2;PMS_P1;PMS_P2;Temp;Humidity;BMP_temperature;BMP_pressure;BME280_temperature;BME280_humidity;BME280_pressure;Samples;Min_cycle;Max_cycle;Signal;HPM_P1;HPM_P2
2022/01/20 00:00:18;;;;;;;56.15;33.03;;;2.00;99.90;;;;;;5073267;28;20103;-50
2022/01/20 00:02:47;;;;;;;66.95;42.42;;;1.80;99.90;;;;;;5073413;28;20090;-51
2022/01/20 00:05:34;;;;;;;36.45;20.83;;;1.60;99.90;;;;;;5037710;28;20040;-50
2022/01/20 00:26:55;;;;;;;39.72;22.15;;;-0.10;99.90;;;;;;5026696;28;20056;-50
2022/01/20 00:29:32;;;;;;;39.63;24.30;;;-0.10;99.90;;;;;;5057290;28;20033;-50
2022/01/20 00:32:10;;;;;;;49.80;27.85;;;0.10;99.90;;;;;;5040359;28;20048;-51
2022/01/20 00:37:22;;;;;;;45.88;24.77;;;0.20;99.90;;;;;;5057088;28;20033;-50
2022/01/20 00:39:48;;;;;;;44.80;26.58;;;0.20;99.90;;;;;;5056716;28;20027;-51
2022/01/20 00:42:15;;;;;;;43.78;25.98;;;0.10;99.90;;;;;;5038253;28;20053;-51
2022/01/20 00:44:42;;;;;;;41.95;24.85;;;0.10;99.90;;;;;;5073597;28;20032;-51
2022/01/20 00:47:08;;;;;;;39.53;25.25;;;0.40;99.90;;;;;;5076179;28;20044;-50
2022/01/20 00:49:34;;;;;;;37.70;23.80;;;0.60;99.90;;;;;;5040124;28;20086;-50
2022/01/20 00:52:00;;;;;;;43.67;25.20;;;0.50;99.90;;;;;;5075555;28;20028;-50
2022/01/20 00:54:26;;;;;;;47.28;27.80;;;0.60;99.90;;;;;;5075335;28;20028;-51
2022/01/20 00:56:51;;;;;;;43.00;27.83;;;0.60;99.90;;;;;;5075394;28;20060;-51
2022/01/20 00:59:17;;;;;;;72.50;46.55;;;0.70;99.90;;;;;;5075194;28;20464;-52
2022/01/20 01:01:44;;;;;;;81.70;47.22;;;0.60;99.90;;;;;;5075231;28;20020;-51
2022/01/20 01:04:10;;;;;;;131.38;76.85;;;0.80;99.90;;;;;;5075071;28;20469;-50
2022/01/20 01:09:08;;;;;;;94.22;56.47;;;0.80;99.90;;;;;;5075167;28;20060;-51
2022/01/20 01:11:36;;;;;;;86.93;51.45;;;1.00;99.90;;;;;;5074808;28;20144;-51
2022/01/20 01:14:04;;;;;;;172.02;79.63;;;1.20;99.90;;;;;;5075061;28;20082;-51
2022/01/20 01:24:37;;;;;;;32.25;21.27;;;1.00;99.90;;;;;;5074908;28;20035;-50
2022/01/20 01:27:04;;;;;;;36.03;20.88;;;0.70;99.90;;;;;;5074484;28;20036;-52
2022/01/20 01:32:17;;;;;;;49.78;26.63;;;0.70;99.90;;;;;;5075135;28;20507;-50
2022/01/20 01:34:49;;;;;;;40.33;23.67;;;0.80;99.90;;;;;;5074188;28;20032;-51
2022/01/20 01:38:23;;;;;;;40.15;23.48;;;1.10;99.90;;;;;;5074760;28;20472;-51
2022/01/20 01:40:12;;;;;;;37.53;23.95;;;1.40;99.90;;;;;;5074535;28;20047;-50
2022/01/20 01:42:45;;;;;;;59.47;33.50;;;1.70;99.90;;;;;;5039117;28;20029;-50
2022/01/20 01:45:26;;;;;;;49.80;28.50;;;1.90;99.90;;;;;;5074460;28;20103;-50
2022/01/20 01:47:52;;;;;;;57.45;34.97;;;1.90;99.90;;;;;;5022770;28;1177313;-50
2022/01/20 01:50:19;;;;;;;61.20;36.22;;;1.80;99.90;;;;;;5068010;28;20107;-50
2022/01/20 01:52:44;;;;;;;47.33;29.35;;;1.90;99.90;;;;;;5040027;28;20071;-51
2022/01/20 01:55:10;;;;;;;45.90;27.55;;;1.80;99.90;;;;;;5075560;28;20418;-51
2022/01/20 01:57:36;;;;;;;43.38;25.95;;;1.80;99.90;;;;;;5075447;28;20036;-50
2022/01/20 02:00:06;;;;;;;41.97;25.08;;;1.90;99.90;;;;;;5075184;28;20056;-50
2022/01/20 02:02:32;;;;;;;45.33;24.20;;;1.90;99.90;;;;;;5033108;28;20045;-50
2022/01/20 02:04:58;;;;;;;42.42;25.02;;;1.80;99.90;;;;;;5033100;28;20441;-51
2022/01/20 02:18:13;;;;;;;41.80;26.08;;;2.20;99.90;;;;;;5032941;28;20096;-51
2022/01/20 02:20:40;;;;;;;40.25;23.85;;;2.00;99.90;;;;;;5032733;28;20038;-51
2022/01/20 02:23:06;;;;;;;40.50;24.67;;;2.00;99.90;;;;;;5032820;28;20474;-50
2022/01/20 02:25:35;;;;;;;43.50;24.38;;;2.00;99.90;;;;;;5032726;28;20037;-50
2022/01/20 02:28:07;;;;;;;41.70;24.27;;;2.10;99.90;;;;;;5015852;28;20132;-50
2022/01/20 02:30:34;;;;;;;42.10;24.05;;;2.10;99.90;;;;;;5032667;28;20068;-50
2022/01/20 02:33:06;;;;;;;39.38;23.65;;;2.10;99.90;;;;;;5045285;28;20051;-51
2022/01/20 02:35:36;;;;;;;44.65;28.08;;;2.10;99.90;;;;;;5039393;28;20040;-50
2022/01/20 02:38:16;;;;;;;42.25;25.95;;;1.70;99.90;;;;;;5074632;28;20028;-50
2022/01/20 02:45:58;;;;;;;80.32;45.63;;;1.80;99.90;;;;;;5043642;28;20044;-51
2022/01/20 02:48:25;;;;;;;65.13;36.72;;;1.80;99.90;;;;;;5074075;28;20064;-50
2022/01/20 02:50:50;;;;;;;60.28;34.97;;;1.90;99.90;;;;;;5074452;28;20029;-51
2022/01/20 02:53:16;;;;;;;66.30;39.53;;;2.00;99.90;;;;;;5074621;28;20044;-49
2022/01/20 02:55:42;;;;;;;55.05;33.20;;;2.00;99.90;;;;;;5073831;28;20032;-49
2022/01/20 02:58:08;;;;;;;37.95;23.83;;;2.00;99.90;;;;;;5074456;28;20111;-51
2022/01/20 03:00:34;;;;;;;37.17;22.45;;;2.20;99.90;;;;;;5074306;28;20028;-51
2022/01/20 03:03:01;;;;;;;44.50;26.55;;;2.20;99.90;;;;;;5073974;28;20028;-50
2022/01/20 03:05:30;;;;;;;39.55;25.17;;;2.10;99.90;;;;;;5022379;28;20048;-50
2022/01/20 03:07:57;;;;;;;38.75;24.83;;;1.90;99.90;;;;;;5074264;28;20107;-50
2022/01/20 03:10:22;;;;;;;44.03;27.90;;;1.40;99.90;;;;;;5073961;28;20039;-50
2022/01/20 03:12:49;;;;;;;61.30;35.08;;;1.00;99.90;;;;;;5073401;28;20040;-50
2022/01/20 03:15:15;;;;;;;38.55;23.73;;;0.70;99.90;;;;;;5073101;28;20388;-50
2022/01/20 03:17:41;;;;;;;26.70;18.00;;;0.50;99.90;;;;;;5021665;28;20040;-51
2022/01/20 03:20:07;;;;;;;32.80;20.88;;;0.10;99.90;;;;;;5053918;28;20029;-50
2022/01/20 03:22:33;;;;;;;32.13;19.88;;;-0.30;99.90;;;;;;5019014;28;20060;-50
2022/01/20 03:24:59;;;;;;;33.72;21.02;;;-0.40;99.90;;;;;;5053580;28;20033;-50
2022/01/20 03:27:25;;;;;;;31.67;20.25;;;-0.30;99.90;;;;;;5053806;28;20043;-50
2022/01/20 03:29:51;;;;;;;33.33;20.00;;;0.00;99.90;;;;;;5053865;28;20032;-51
2022/01/20 03:32:16;;;;;;;32.58;18.10;;;0.20;99.90;;;;;;5053841;28;20107;-50
2022/01/20 03:34:42;;;;;;;34.15;19.88;;;0.40;99.90;;;;;;5053755;28;20048;-50
2022/01/20 03:37:08;;;;;;;37.03;21.40;;;0.80;99.90;;;;;;5053663;28;20033;-51
2022/01/20 03:39:34;;;;;;;30.50;20.15;;;1.00;99.90;;;;;;5053864;28;20365;-50
2022/01/20 03:42:00;;;;;;;36.88;22.90;;;1.00;99.90;;;;;;5053527;28;20033;-51
2022/01/20 03:44:26;;;;;;;35.20;21.80;;;1.10;99.90;;;;;;5053640;28;20029;-51
2022/01/20 03:46:52;;;;;;;30.02;19.02;;;1.50;99.90;;;;;;5053349;28;20040;-50
2022/01/20 03:49:34;;;;;;;41.05;22.77;;;1.20;99.90;;;;;;5053611;28;20036;-51
2022/01/20 03:52:00;;;;;;;43.58;26.30;;;1.30;99.90;;;;;;5053624;28;20064;-51
2022/01/20 03:54:26;;;;;;;39.58;23.55;;;1.50;99.90;;;;;;5053551;28;20118;-51
2022/01/20 03:56:52;;;;;;;38.40;23.65;;;1.50;99.90;;;;;;5018198;28;20613;-51
2022/01/20 03:59:18;;;;;;;37.08;22.65;;;1.60;99.90;;;;;;5053355;28;20135;-51
2022/01/20 04:01:45;;;;;;;35.70;23.17;;;1.50;99.90;;;;;;5053548;28;20033;-51
2022/01/20 04:04:11;;;;;;;39.47;23.65;;;1.50;99.90;;;;;;5053501;28;20108;-50
2022/01/20 04:06:37;;;;;;;48.72;27.98;;;1.50;99.90;;;;;;5053117;28;20527;-50
2022/01/20 04:09:04;;;;;;;45.22;33.60;;;1.30;99.90;;;;;;5053378;28;20415;-50
2022/01/20 04:11:31;;;;;;;39.35;25.23;;;1.40;99.90;;;;;;5053177;28;20025;-50
2022/01/20 04:13:57;;;;;;;33.00;21.48;;;1.20;99.90;;;;;;5018185;28;20122;-50
2022/01/20 04:17:01;;;;;;;32.97;19.08;;;1.20;99.90;;;;;;5053377;28;20087;-50
2022/01/20 04:19:28;;;;;;;36.80;21.75;;;0.90;99.90;;;;;;5053165;28;20071;-50
2022/01/20 04:21:54;;;;;;;35.40;19.90;;;0.50;99.90;;;;;;5053208;28;20029;-51
2022/01/20 04:24:20;;;;;;;64.57;32.83;;;0.40;99.90;;;;;;5035338;28;20033;-50
2022/01/20 04:26:47;;;;;;;57.47;30.70;;;0.30;99.90;;;;;;5053082;28;20047;-50
2022/01/20 04:29:14;;;;;;;49.55;25.25;;;0.40;99.90;;;;;;5053452;28;20037;-50
2022/01/20 04:31:41;;;;;;;59.33;29.08;;;0.10;99.90;;;;;;5017882;28;20072;-50
2022/01/20 04:34:09;;;;;;;59.30;32.35;;;-0.10;99.90;;;;;;5052836;28;20039;-49
2022/01/20 04:36:39;;;;;;;56.88;31.15;;;0.10;99.90;;;;;;5053027;28;20496;-50
2022/01/20 04:39:08;;;;;;;56.28;28.15;;;0.20;99.90;;;;;;5050338;28;20073;-51
2022/01/20 04:41:35;;;;;;;55.58;29.33;;;0.20;99.90;;;;;;5052885;28;20396;-51
2022/01/20 04:44:04;;;;;;;66.97;40.15;;;0.30;99.90;;;;;;5053145;28;20435;-51
2022/01/20 04:46:38;;;;;;;53.15;40.63;;;0.40;99.90;;;;;;5052674;28;20111;-50
2022/01/20 04:57:19;;;;;;;38.60;22.90;;;0.00;99.90;;;;;;5054254;28;20032;-50
2022/01/20 04:59:47;;;;;;;42.35;23.35;;;0.00;99.90;;;;;;5053313;28;20041;-51
2022/01/20 05:02:13;;;;;;;55.40;30.40;;;0.30;99.90;;;;;;5051611;28;20445;-50
2022/01/20 05:04:39;;;;;;;64.40;37.50;;;0.40;99.90;;;;;;5054450;28;20029;-51
2022/01/20 05:07:07;;;;;;;78.78;43.80;;;0.70;99.90;;;;;;5055914;28;20083;-51
2022/01/20 05:09:33;;;;;;;65.18;36.67;;;0.80;99.90;;;;;;5064754;28;20128;-50
2022/01/20 05:12:11;;;;;;;122.47;49.65;;;0.90;99.90;;;;;;5072295;28;20036;-50
2022/01/20 05:14:37;;;;;;;116.95;57.10;;;1.00;99.90;;;;;;5074323;28;20085;-51
2022/01/20 05:17:04;;;;;;;137.98;55.90;;;1.20;99.90;;;;;;5038778;28;20040;-50
2022/01/20 05:19:32;;;;;;;88.75;36.33;;;1.30;99.90;;;;;;5065455;28;20033;-50
2022/01/20 05:21:58;;;;;;;75.22;33.40;;;1.40;99.90;;;;;;5066779;28;20025;-50
2022/01/20 05:24:25;;;;;;;64.30;28.73;;;1.50;99.90;;;;;;5071939;28;20025;-50
2022/01/20 05:26:52;;;;;;;39.00;20.08;;;1.60;99.90;;;;;;5059409;28;20099;-51
2022/01/20 05:29:19;;;;;;;61.05;24.50;;;1.70;99.90;;;;;;5020912;28;20041;-51
2022/01/20 05:31:45;;;;;;;178.30;56.88;;;1.60;99.90;;;;;;5055930;28;20036;-50
2022/01/20 05:34:11;;;;;;;140.40;44.55;;;1.80;99.90;;;;;;5056019;28;20086;-51
2022/01/20 05:36:37;;;;;;;87.32;32.33;;;1.60;99.90;;;;;;5020612;28;20040;-51
2022/01/20 05:39:04;;;;;;;30.00;16.35;;;1.50;99.90;;;;;;5055745;28;20496;-50
2022/01/20 05:41:30;;;;;;;38.17;20.67;;;1.20;99.90;;;;;;5064989;28;20024;-51
2022/01/20 05:43:56;;;;;;;29.73;16.83;;;0.80;99.90;;;;;;5066632;28;20094;-51
2022/01/20 05:46:25;;;;;;;24.60;14.32;;;0.60;99.90;;;;;;5065762;28;20055;-51
2022/01/20 05:48:56;;;;;;;26.63;15.15;;;-0.20;99.90;;;;;;5066912;28;20060;-50
2022/01/20 05:51:22;;;;;;;25.38;14.50;;;-0.30;99.90;;;;;;5059451;28;20040;-50
2022/01/20 05:53:48;;;;;;;28.60;16.25;;;-0.20;99.90;;;;;;5070543;28;20111;-51
2022/01/20 05:56:14;;;;;;;56.13;34.03;;;0.00;99.90;;;;;;5064298;28;20028;-50
2022/01/20 05:58:40;;;;;;;54.47;32.95;;;0.40;99.90;;;;;;5039346;28;20045;-50
2022/01/20 06:01:07;;;;;;;59.38;32.40;;;0.60;99.90;;;;;;5023068;28;20032;-50
2022/01/20 06:03:36;;;;;;;60.97;36.75;;;0.80;99.90;;;;;;5023623;28;20510;-52
2022/01/20 06:06:06;;;;;;;34.05;17.80;;;1.00;99.90;;;;;;5075235;28;20029;-50
2022/01/20 06:08:32;;;;;;;65.30;37.22;;;1.20;99.90;;;;;;5039909;28;20132;-50
2022/01/20 06:10:58;;;;;;;111.80;45.83;;;1.30;99.90;;;;;;5074300;28;20036;-52
2022/01/20 06:13:24;;;;;;;146.75;80.85;;;1.50;99.90;;;;;;5036362;28;20059;-51
2022/01/20 06:15:50;;;;;;;106.00;64.93;;;1.70;99.90;;;;;;5054938;28;20033;-52
2022/01/20 06:18:17;;;;;;;64.50;40.67;;;1.70;99.90;;;;;;5055093;28;20033;-50
2022/01/20 06:20:44;;;;;;;77.15;60.00;;;1.80;99.90;;;;;;5053938;28;20059;-51
2022/01/20 06:23:10;;;;;;;80.57;44.28;;;1.90;99.90;;;;;;5054430;28;20083;-50
2022/01/20 06:25:36;;;;;;;93.55;50.95;;;1.80;99.90;;;;;;5036371;28;20032;-50
2022/01/20 06:28:03;;;;;;;75.70;41.83;;;2.00;99.90;;;;;;5070321;28;20024;-51
2022/01/20 06:30:29;;;;;;;67.85;40.33;;;2.10;99.90;;;;;;5056744;28;20070;-50
2022/01/20 06:32:55;;;;;;;216.55;113.63;;;2.30;99.90;;;;;;5054600;28;20108;-51
2022/01/20 06:35:21;;;;;;;119.40;62.85;;;2.30;99.90;;;;;;5054907;28;20025;-51
2022/01/20 06:37:47;;;;;;;110.18;59.30;;;2.20;99.90;;;;;;5036249;28;20057;-51
2022/01/20 06:40:13;;;;;;;131.13;67.22;;;2.20;99.90;;;;;;5063543;28;20511;-50
2022/01/20 06:42:40;;;;;;;41.25;24.08;;;2.20;99.90;;;;;;5058490;28;20047;-51
2022/01/20 06:45:08;;;;;;;23.70;15.25;;;;;;;;;;5054422;28;20115;-51
2022/01/20 06:47:34;;;;;;;14.38;8.70;;;2.60;99.90;;;;;;5012637;28;20050;-51
2022/01/20 06:50:00;;;;;;;20.83;11.05;;;3.40;99.90;;;;;;5014536;28;20033;-51
2022/01/20 06:52:27;;;;;;;53.30;31.42;;;3.90;99.90;;;;;;5014699;28;20037;-54
2022/01/20 06:54:53;;;;;;;49.42;29.42;;;4.70;99.90;;;;;;5012874;28;20103;-51
2022/01/20 06:57:20;;;;;;;30.88;19.20;;;;;;;;;;5014572;28;20474;-50
2022/01/20 06:59:45;;;;;;;13.40;7.72;;;5.20;99.90;;;;;;5014324;28;20034;-51
2022/01/20 07:02:11;;;;;;;15.07;6.95;;;5.50;99.90;;;;;;5013405;28;20033;-52
2022/01/20 07:04:38;;;;;;;18.77;12.30;;;6.00;99.90;;;;;;4993150;28;20037;-50
2022/01/20 07:07:05;;;;;;;17.58;9.95;;;6.50;99.90;;;;;;5024642;28;20484;-54
2022/01/20 07:09:32;;;;;;;18.48;11.50;;;6.80;99.90;;;;;;5032985;28;20064;-52
2022/01/20 07:11:59;;;;;;;53.40;36.40;;;6.90;99.90;;;;;;5029795;28;20033;-53
2022/01/20 07:14:24;;;;;;;20.77;11.45;;;6.70;99.90;;;;;;5033099;28;20366;-53
2022/01/20 07:16:50;;;;;;;18.83;11.02;;;7.00;99.90;;;;;;5014202;28;20030;-52
2022/01/20 07:19:16;;;;;;;29.83;15.63;;;7.10;99.90;;;;;;5018320;28;20045;-52
2022/01/20 07:21:43;;;;;;;23.17;14.02;;;7.80;99.90;;;;;;4993849;28;20048;-52
2022/01/20 07:24:09;;;;;;;21.88;11.10;;;7.80;99.90;;;;;;5013083;28;20046;-52
2022/01/20 07:26:35;;;;;;;23.95;13.30;;;7.60;99.70;;;;;;5012986;28;20056;-51
2022/01/20 07:29:01;;;;;;;21.33;13.10;;;7.80;99.40;;;;;;5013103;28;20029;-53
2022/01/20 07:31:27;;;;;;;19.55;11.93;;;7.60;99.40;;;;;;5010435;28;20051;-52
2022/01/20 07:33:53;;;;;;;24.40;14.60;;;7.20;99.60;;;;;;5009658;28;20489;-52
2022/01/20 07:36:19;;;;;;;19.42;11.93;;;7.40;99.70;;;;;;4961290;28;20050;-52
2022/01/20 07:38:45;;;;;;;21.63;13.63;;;8.40;98.40;;;;;;4977085;28;20537;-52
2022/01/20 07:41:11;;;;;;;22.90;13.23;;;;;;;;;;5010281;28;20042;-52
2022/01/20 07:43:38;;;;;;;23.60;15.30;;;;;;;;;;4977569;28;20116;-52
2022/01/20 07:46:04;;;;;;;670.40;611.60;;;11.80;94.30;;;;;;5011266;28;20038;-53
2022/01/20 07:48:29;;;;;;;76.65;47.65;;;13.60;93.50;;;;;;5044142;28;20396;-52
2022/01/20 07:50:55;;;;;;;29.92;21.35;;;14.90;91.50;;;;;;5049798;28;20037;-52
2022/01/20 07:53:21;;;;;;;27.88;19.40;;;15.40;88.80;;;;;;5032983;28;20049;-52
2022/01/20 07:55:47;;;;;;;29.10;20.05;;;15.90;85.10;;;;;;5048874;28;20056;-52
2022/01/20 07:58:13;;;;;;;27.02;16.35;;;15.70;82.80;;;;;;5015938;28;20049;-52
2022/01/20 08:00:39;;;;;;;22.45;15.27;;;;;;;;;;5029562;28;20033;-53
2022/01/20 08:03:04;;;;;;;24.38;15.25;;;14.40;81.60;;;;;;5031413;28;20038;-52
2022/01/20 08:05:30;;;;;;;15.48;11.25;;;13.20;83.80;;;;;;5032070;28;20107;-52
2022/01/20 08:07:56;;;;;;;17.40;10.07;;;11.30;85.40;;;;;;5013111;28;20049;-54
2022/01/20 08:10:22;;;;;;;18.08;10.55;;;9.60;91.70;;;;;;5019317;28;20042;-52
2022/01/20 08:12:48;;;;;;;124.85;111.85;;;;;;;;;;5032171;28;20113;-54
2022/01/20 08:15:15;;;;;;;818.80;755.17;;;7.90;91.10;;;;;;5031914;28;20033;-54
2022/01/20 08:17:42;;;;;;;828.75;755.60;;;7.60;91.60;;;;;;5032071;28;20038;-54
2022/01/20 08:20:09;;;;;;;197.98;127.93;;;7.40;92.10;;;;;;5046555;28;20037;-53
2022/01/20 08:22:35;;;;;;;108.68;66.10;;;8.90;92.10;;;;;;5029713;28;20045;-53
2022/01/20 08:25:08;;;;;;;51.05;31.33;;;9.20;90.70;;;;;;5025822;28;20048;-53
2022/01/20 08:27:37;;;;;;;44.47;28.98;;;11.10;90.30;;;;;;5049394;28;20053;-54
2022/01/20 08:30:08;;;;;;;67.30;40.95;;;13.90;90.40;;;;;;5043453;28;20033;-52
2022/01/20 08:32:33;;;;;;;87.72;43.75;;;15.60;82.30;;;;;;5031355;28;20033;-53
2022/01/20 08:35:04;;;;;;;70.03;37.30;;;16.40;80.00;;;;;;5031841;28;20083;-53
2022/01/20 08:37:30;;;;;;;62.40;34.38;;;17.70;78.70;;;;;;5031716;28;20076;-53
2022/01/20 08:39:56;;;;;;;64.45;36.08;;;18.50;76.10;;;;;;5031835;28;20535;-53
2022/01/20 08:42:22;;;;;;;47.30;28.23;;;19.00;74.80;;;;;;5031826;28;20030;-53
2022/01/20 08:44:48;;;;;;;34.50;25.17;;;;;;;;;;5033191;28;20038;-54
2022/01/20 08:47:17;;;;;;;24.08;12.90;;;21.70;70.90;;;;;;5039800;28;20381;-51
2022/01/20 08:49:46;;;;;;;19.65;11.60;;;21.10;68.50;;;;;;5055501;28;20040;-51
2022/01/20 08:52:13;;;;;;;21.80;11.80;;;21.90;67.60;;;;;;5055479;28;20414;-51
2022/01/20 08:54:38;;;;;;;17.77;11.30;;;17.10;68.60;;;;;;5062320;28;20029;-51
2022/01/20 08:57:05;;;;;;;19.38;12.75;;;15.50;71.70;;;;;;5053216;28;20047;-51
2022/01/20 08:59:30;;;;;;;33.40;20.23;;;14.20;83.80;;;;;;5029417;28;20065;-51
2022/01/20 09:01:56;;;;;;;35.25;20.00;;;;;;;;;;5032028;28;20508;-51
2022/01/20 09:04:22;;;;;;;27.55;14.75;;;12.00;89.90;;;;;;5032419;28;20041;-50
2022/01/20 09:06:49;;;;;;;47.35;26.88;;;;;;;;;;5032070;28;20047;-53
2022/01/20 09:09:17;;;;;;;15.98;9.20;;;11.40;79.00;;;;;;5032150;28;20061;-54
2022/01/20 09:12:01;;;;;;;29.42;18.35;;;11.20;80.50;;;;;;4999427;28;20037;-54
2022/01/20 09:17:11;;;;;;;29.45;16.15;;;11.10;80.40;;;;;;5013136;28;20580;-53
2022/01/20 09:19:37;;;;;;;44.28;24.15;;;11.50;79.60;;;;;;5012845;28;20034;-52
2022/01/20 09:22:05;;;;;;;32.35;17.75;;;11.40;80.30;;;;;;5012797;28;20144;-53
2022/01/20 09:24:31;;;;;;;42.47;22.13;;;11.10;80.90;;;;;;5012704;28;20073;-54
2022/01/20 09:26:57;;;;;;;40.63;23.77;;;11.20;81.00;;;;;;4994839;28;20472;-52
2022/01/20 09:29:23;;;;;;;19.52;12.05;;;11.30;81.20;;;;;;5013762;28;20045;-53
2022/01/20 09:31:51;;;;;;;11.82;5.97;;;10.80;82.20;;;;;;5054793;28;20032;-52
2022/01/20 09:34:17;;;;;;;5.72;3.97;;;;;;;;;;5054657;28;20029;-53
2022/01/20 09:36:44;;;;;;;9.18;5.13;;;10.10;97.80;;;;;;5054429;28;20024;-53
2022/01/20 09:39:11;;;;;;;16.25;6.85;;;10.00;85.30;;;;;;5054499;28;20036;-53
2022/01/20 09:41:37;;;;;;;17.10;9.85;;;9.90;85.70;;;;;;5054480;28;20025;-52
2022/01/20 09:44:05;;;;;;;9.30;5.75;;;9.80;87.10;;;;;;5060469;28;20095;-51
2022/01/20 09:46:32;;;;;;;131.95;62.92;;;9.70;87.80;;;;;;5068609;28;20036;-53
2022/01/20 09:48:58;;;;;;;106.07;54.72;;;9.80;87.60;;;;;;5024445;28;20122;-54
2022/01/20 09:51:26;;;;;;;69.95;39.42;;;10.20;87.20;;;;;;5057018;28;20036;-52
2022/01/20 09:53:51;;;;;;;98.78;47.55;;;10.20;86.10;;;;;;5062070;28;20028;-52
2022/01/20 09:56:18;;;;;;;54.45;22.27;;;10.60;86.70;;;;;;5019350;28;20043;-52
2022/01/20 09:58:45;;;;;;;53.45;19.42;;;10.90;85.30;;;;;;5063703;28;20060;-53
2022/01/20 10:01:11;;;;;;;53.03;22.95;;;11.10;86.00;;;;;;5060108;28;20380;-52
2022/01/20 10:03:38;;;;;;;83.75;40.92;;;11.20;85.90;;;;;;5020042;28;20040;-53
2022/01/20 10:06:05;;;;;;;100.80;27.38;;;11.20;84.60;;;;;;5064002;28;20087;-53
2022/01/20 10:08:35;;;;;;;68.32;21.42;;;11.50;85.80;;;;;;5035360;28;20112;-53
2022/01/20 10:11:10;;;;;;;84.60;29.25;;;11.00;96.00;;;;;;5063191;28;20633;-53
2022/01/20 10:13:38;;;;;;;46.92;13.70;;;;;;;;;;5053851;28;20082;-54
2022/01/20 10:16:08;;;;;;;72.90;28.60;;;;;;;;;;5053850;28;20064;-53
2022/01/20 10:18:46;;;;;;;46.97;18.10;;;12.50;98.30;;;;;;5054501;28;20037;-53
2022/01/20 10:21:13;;;;;;;77.15;29.40;;;;;;;;;;5055281;28;20391;-52
2022/01/20 10:23:41;;;;;;;44.60;16.67;;;12.90;99.90;;;;;;5055258;28;20425;-52
2022/01/20 10:26:07;;;;;;;125.85;47.38;;;12.60;91.30;;;;;;5055044;28;20474;-53
2022/01/20 10:28:51;;;;;;;37.42;17.63;;;12.20;91.80;;;;;;5054978;28;20047;-53
2022/01/20 10:31:19;;;;;;;37.80;16.13;;;;;;;;;;5063126;28;20025;-52
2022/01/20 10:33:46;;;;;;;25.05;12.32;;;12.50;96.70;;;;;;5062990;28;20035;-53
2022/01/20 10:36:13;;;;;;;29.85;16.95;;;12.40;87.60;;;;;;5063372;28;20357;-54
2022/01/20 10:38:53;;;;;;;23.23;14.32;;;12.70;89.70;;;;;;5064444;28;20464;-54
2022/01/20 10:41:34;;;;;;;24.05;15.23;;;12.80;91.20;;;;;;5036259;28;20032;-54
2022/01/20 10:44:03;;;;;;;54.25;32.03;;;12.90;84.90;;;;;;5073162;28;20071;-54
2022/01/20 10:46:40;;;;;;;166.80;107.68;;;12.90;87.70;;;;;;5074491;28;20396;-53
2022/01/20 10:49:06;;;;;;;207.65;137.52;;;12.70;90.10;;;;;;5072864;28;20571;-52
2022/01/20 10:51:31;;;;;;;199.20;130.60;;;12.40;90.30;;;;;;5074546;28;20055;-52
2022/01/20 10:54:13;;;;;;;176.93;119.07;;;12.40;90.60;;;;;;5074431;28;20024;-52
2022/01/20 10:56:57;;;;;;;140.20;93.00;;;12.30;90.30;;;;;;5071489;28;20094;-52
2022/01/20 10:59:24;;;;;;;131.48;87.38;;;12.50;90.00;;;;;;5074407;28;20028;-52
2022/01/20 11:02:03;;;;;;;142.50;95.90;;;12.30;89.80;;;;;;5022399;28;20113;-52
2022/01/20 11:04:30;;;;;;;113.97;79.00;;;12.50;90.00;;;;;;5074140;28;20052;-52
2022/01/20 11:06:58;;;;;;;107.13;70.82;;;12.60;89.10;;;;;;5038316;28;20083;-53
2022/01/20 11:09:26;;;;;;;135.80;85.95;;;12.70;89.10;;;;;;5074187;28;20032;-52
2022/01/20 11:11:52;;;;;;;135.93;82.13;;;12.70;89.70;;;;;;5031588;28;20043;-53
2022/01/20 11:14:18;;;;;;;140.40;87.78;;;12.70;89.60;;;;;;4982669;28;20040;-52
2022/01/20 11:16:44;;;;;;;107.65;71.55;;;12.40;90.00;;;;;;5031918;28;20033;-53
2022/01/20 11:19:21;;;;;;;107.68;73.05;;;12.30;89.10;;;;;;4998705;28;20082;-52
2022/01/20 11:21:49;;;;;;;123.68;70.88;;;12.40;89.50;;;;;;5031095;28;20048;-52
2022/01/20 11:24:23;;;;;;;420.13;188.20;;;12.30;88.00;;;;;;5031868;28;20037;-52
2022/01/20 11:26:54;;;;;;;89.50;55.67;;;12.20;89.30;;;;;;5031688;28;20041;-53
2022/01/20 11:29:22;;;;;;;104.57;64.55;;;11.60;90.90;;;;;;5027216;28;20025;-52
2022/01/20 11:31:50;;;;;;;108.22;67.40;;;11.20;91.50;;;;;;5030326;28;20071;-53
2022/01/20 11:34:20;;;;;;;142.45;90.32;;;10.70;92.50;;;;;;4997899;28;20440;-52
2022/01/20 11:36:47;;;;;;;142.43;92.28;;;10.50;93.40;;;;;;5030986;28;20119;-52
2022/01/20 11:39:14;;;;;;;151.27;99.07;;;10.40;93.90;;;;;;5028527;28;20040;-52
2022/01/20 11:41:46;;;;;;;166.70;108.93;;;10.30;94.20;;;;;;5031315;28;20029;-53
2022/01/20 11:44:28;;;;;;;165.25;109.07;;;10.10;95.00;;;;;;5061976;28;20029;-53
2022/01/20 11:47:03;;;;;;;131.23;85.15;;;10.00;95.20;;;;;;5062051;28;20040;-53
2022/01/20 11:49:39;;;;;;;115.13;75.82;;;9.80;95.50;;;;;;5060813;28;20510;-53
2022/01/20 11:52:05;;;;;;;116.55;78.13;;;9.70;95.90;;;;;;5021587;28;20033;-53
2022/01/20 11:54:43;;;;;;;125.72;85.90;;;9.70;96.10;;;;;;4986318;28;20045;-52
2022/01/20 11:57:17;;;;;;;151.57;90.40;;;9.80;96.10;;;;;;5021019;28;20106;-54
2022/01/20 11:59:57;;;;;;;106.57;64.93;;;9.50;96.30;;;;;;5019453;28;20021;-52
2022/01/20 12:02:43;;;;;;;90.35;58.83;;;9.40;96.30;;;;;;5019919;28;20401;-52
2022/01/20 12:05:27;;;;;;;92.07;58.38;;;9.20;96.60;;;;;;5020510;28;20029;-52
2022/01/20 12:08:10;;;;;;;77.22;47.40;;;9.40;96.10;;;;;;5017941;28;20049;-52
2022/01/20 12:10:38;;;;;;;76.20;46.42;;;9.40;95.40;;;;;;5021485;28;20048;-52
2022/01/20 12:13:06;;;;;;;69.82;43.58;;;9.50;95.60;;;;;;5031240;28;20037;-52
2022/01/20 12:15:32;;;;;;;72.10;45.78;;;9.40;95.70;;;;;;5030960;28;20037;-52
2022/01/20 12:17:58;;;;;;;78.65;46.13;;;9.40;96.00;;;;;;5030454;28;20025;-52
2022/01/20 12:20:25;;;;;;;79.88;49.20;;;9.30;96.10;;;;;;5034764;28;20029;-52
2022/01/20 12:22:53;;;;;;;72.97;45.90;;;9.30;96.40;;;;;;5032810;28;20079;-53
2022/01/20 12:25:27;;;;;;;82.70;52.03;;;9.40;96.40;;;;;;5057178;28;20060;-52
2022/01/20 12:28:05;;;;;;;69.20;46.47;;;9.50;96.20;;;;;;5021699;28;20098;-52
2022/01/20 12:30:32;;;;;;;77.43;49.88;;;9.50;96.20;;;;;;5057171;28;20059;-53
2022/01/20 12:33:09;;;;;;;63.08;41.03;;;9.50;96.20;;;;;;5056962;28;20430;-52
2022/01/20 12:35:41;;;;;;;65.65;40.83;;;9.40;96.30;;;;;;5057025;28;20033;-52
2022/01/20 12:38:37;;;;;;;62.50;40.85;;;9.30;96.60;;;;;;5057002;28;20040;-52
2022/01/20 12:41:07;;;;;;;61.03;41.80;;;9.40;96.30;;;;;;5056999;28;20112;-52
2022/01/20 12:44:04;;;;;;;73.90;47.13;;;9.20;96.70;;;;;;5056987;28;20111;-51
2022/01/20 12:46:33;;;;;;;69.68;45.70;;;9.00;96.90;;;;;;5056647;28;20087;-52
2022/01/20 12:49:12;;;;;;;66.53;44.80;;;9.10;97.10;;;;;;5056821;28;20049;-52
2022/01/20 12:51:44;;;;;;;90.80;53.60;;;9.10;97.20;;;;;;5066775;28;20033;-52
2022/01/20 12:54:26;;;;;;;64.20;41.88;;;9.40;97.30;;;;;;5076269;28;20082;-51
2022/01/20 12:57:00;;;;;;;94.28;53.25;;;9.10;97.70;;;;;;5076564;28;20044;-52
2022/01/20 12:59:38;;;;;;;99.20;59.65;;;9.40;97.80;;;;;;5072589;28;20036;-52
2022/01/20 13:02:24;;;;;;;106.47;64.13;;;9.50;97.50;;;;;;5061716;28;20051;-52
2022/01/20 13:04:58;;;;;;;62.65;39.95;;;9.60;97.50;;;;;;5056405;28;20032;-52
2022/01/20 13:07:24;;;;;;;83.07;48.92;;;9.50;97.50;;;;;;5056292;28;20037;-53
2022/01/20 13:10:04;;;;;;;110.97;60.05;;;9.30;97.70;;;;;;5037902;28;20044;-51
2022/01/20 13:12:38;;;;;;;71.35;40.63;;;9.40;97.60;;;;;;5056230;28;20033;-53
2022/01/20 13:15:17;;;;;;;37.58;25.40;;;9.40;97.10;;;;;;5056004;28;20398;-52
2022/01/20 13:17:44;;;;;;;33.88;21.25;;;;;;;;;;5058121;28;20067;-49
2022/01/20 13:20:16;;;;;;;39.80;25.58;;;9.30;99.60;;;;;;5064288;28;20120;-49
2022/01/20 13:22:54;;;;;;;29.63;20.13;;;8.90;97.00;;;;;;5065413;28;20078;-50
2022/01/20 13:25:25;;;;;;;31.40;19.23;;;8.70;97.40;;;;;;5065591;28;20074;-52
2022/01/20 13:27:52;;;;;;;33.05;19.67;;;;;;;;;;5024338;28;20046;-51
2022/01/20 13:30:25;;;;;;;27.05;18.52;;;8.40;99.90;;;;;;5023186;28;20034;-53
2022/01/20 13:32:51;;;;;;;24.88;15.57;;;;;;;;;;5024208;28;20048;-49
2022/01/20 13:35:17;;;;;;;29.42;18.55;;;;;;;;;;5023654;28;20409;-55
2022/01/20 13:37:45;;;;;;;28.92;17.63;;;7.50;99.90;;;;;;5022020;28;20038;-58
2022/01/20 13:40:11;;;;;;;34.05;20.50;;;;;;;;;;5023811;28;20029;-53
2022/01/20 13:45:00;;;;;;;35.00;19.95;;;7.00;99.90;;;;;;5029265;28;20041;-58
2022/01/20 13:45:38;;;;;;;24.45;15.90;;;7.10;99.90;;;;;;5033573;28;20037;-55
2022/01/20 13:48:05;;;;;;;32.90;17.50;;;7.00;99.90;;;;;;5033401;28;20049;-57